KGNV 161553Z 20006KT 10SM SCT028 31/23 A3015 RMK AO2 SLP207 T03060233